createdAt,value
2022-11-09T00:01:03.541Z,1.40
2022-11-09T00:03:30.181Z,1.45
2022-11-09T00:05:58.038Z,1.10
2022-11-09T00:08:24.688Z,1.50
2022-11-09T00:10:51.337Z,1.60
2022-11-09T00:13:18.344Z,1.67
2022-11-09T00:15:45.629Z,1.75
2022-11-09T00:18:12.252Z,1.40
2022-11-09T00:20:43.230Z,1.40
2022-11-09T00:23:13.811Z,1.35
2022-11-09T00:25:40.396Z,1.25
2022-11-09T00:28:06.959Z,1.30
2022-11-09T00:30:33.493Z,1.42
2022-11-09T00:33:00.021Z,2.33
2022-11-09T00:35:27.343Z,1.38
2022-11-09T00:37:55.310Z,1.30
2022-11-09T00:40:21.976Z,1.60
2022-11-09T00:42:48.846Z,1.00
2022-11-09T00:45:16.404Z,1.30
2022-11-09T00:47:44.105Z,1.08
2022-11-09T00:50:11.237Z,1.20
2022-11-09T00:52:38.372Z,1.10
2022-11-09T00:55:05.470Z,1.20
2022-11-09T00:57:32.303Z,0.98
2022-11-09T00:59:59.046Z,1.17
2022-11-09T01:02:25.620Z,1.10
2022-11-09T01:04:52.604Z,1.10
2022-11-09T01:07:19.175Z,0.90
2022-11-09T01:09:47.288Z,0.82
2022-11-09T01:12:13.851Z,1.00
2022-11-09T01:14:40.383Z,1.20
2022-11-09T01:17:06.941Z,1.10
2022-11-09T01:19:33.575Z,1.00
2022-11-09T01:22:00.103Z,1.23
2022-11-09T01:24:28.268Z,1.00
2022-11-09T01:26:55.256Z,1.30
2022-11-09T01:29:21.878Z,0.90
2022-11-09T01:31:48.946Z,0.90
2022-11-09T01:34:17.466Z,1.13
2022-11-09T01:36:44.026Z,1.25
2022-11-09T01:39:10.611Z,1.33
2022-11-09T01:41:38.147Z,0.80
2022-11-09T01:44:10.046Z,1.30
2022-11-09T01:46:40.873Z,1.25
2022-11-09T01:49:24.328Z,0.90
2022-11-09T01:51:57.761Z,1.13
2022-11-09T01:54:29.776Z,1.33
2022-11-09T01:57:00.952Z,1.10
2022-11-09T01:59:31.364Z,0.90
2022-11-09T02:02:00.383Z,1.50
2022-11-09T02:07:06.294Z,0.90
2022-11-09T02:09:52.517Z,1.00
2022-11-09T02:12:19.383Z,1.15
2022-11-09T02:14:49.645Z,0.93
2022-11-09T02:17:17.996Z,1.25
2022-11-09T02:19:45.424Z,1.23
2022-11-09T02:22:12.095Z,1.08
2022-11-09T02:24:38.871Z,0.90
2022-11-09T02:27:07.364Z,0.82
2022-11-09T02:29:40.683Z,1.02
2022-11-09T02:32:13.859Z,1.00
2022-11-09T02:34:40.558Z,1.00
2022-11-09T02:37:07.503Z,1.20
2022-11-09T02:39:34.580Z,1.00
2022-11-09T02:42:13.717Z,0.95
2022-11-09T02:44:47.684Z,1.10
2022-11-09T02:47:14.357Z,0.90
2022-11-09T02:49:41.427Z,1.20
2022-11-09T02:52:08.959Z,0.98
2022-11-09T02:54:35.970Z,0.98
2022-11-09T02:57:04.380Z,1.02
2022-11-09T02:59:32.418Z,0.98
2022-11-09T03:01:59.590Z,1.00
2022-11-09T03:04:28.964Z,1.00
2022-11-09T03:06:55.587Z,1.05
2022-11-09T03:09:22.305Z,1.00
2022-11-09T03:11:50.520Z,1.10
2022-11-09T03:14:17.809Z,1.27
2022-11-09T03:16:50.917Z,1.30
2022-11-09T03:19:18.626Z,1.13
2022-11-09T03:21:47.566Z,1.25
2022-11-09T03:24:14.161Z,1.15
2022-11-09T03:26:41.651Z,1.00
2022-11-09T03:29:09.075Z,0.90
2022-11-09T03:31:35.959Z,1.25
2022-11-09T03:34:05.664Z,1.35
2022-11-09T03:39:01.687Z,1.00
2022-11-09T03:41:28.330Z,1.15
2022-11-09T03:43:54.926Z,1.00
2022-11-09T03:46:21.475Z,1.10
2022-11-09T03:48:48.176Z,1.15
2022-11-09T03:51:14.697Z,1.20
2022-11-09T03:53:41.259Z,1.27
2022-11-09T03:56:07.972Z,1.27
2022-11-09T03:58:34.491Z,1.10
2022-11-09T04:01:01.102Z,1.33
2022-11-09T04:03:27.658Z,1.08
2022-11-09T04:05:54.178Z,1.10
2022-11-09T04:08:20.752Z,1.70
2022-11-09T04:10:47.315Z,1.55
2022-11-09T04:13:13.795Z,1.17
2022-11-09T04:15:40.352Z,1.20
2022-11-09T04:18:06.845Z,1.10
2022-11-09T04:20:33.541Z,0.90
2022-11-09T04:23:02.906Z,1.23
2022-11-09T04:25:33.315Z,1.20
2022-11-09T04:28:01.377Z,1.50
2022-11-09T04:30:29.817Z,1.65
2022-11-09T04:32:57.426Z,1.92
2022-11-09T04:35:25.456Z,2.35
2022-11-09T04:37:58.976Z,2.05
2022-11-09T04:40:27.584Z,2.20
2022-11-09T04:42:54.583Z,2.03
2022-11-09T04:45:21.887Z,2.40
2022-11-09T04:47:48.605Z,2.28
2022-11-09T04:50:15.623Z,1.80
2022-11-09T04:52:42.187Z,1.70
2022-11-09T04:55:09.244Z,1.40
2022-11-09T04:57:35.839Z,1.60
2022-11-09T05:00:03.029Z,1.40
2022-11-09T05:02:29.581Z,1.10
2022-11-09T05:04:56.109Z,1.40
2022-11-09T05:07:22.652Z,1.65
2022-11-09T05:09:49.348Z,1.20
2022-11-09T05:12:16.182Z,1.30
2022-11-09T05:14:42.673Z,1.38
2022-11-09T05:17:09.296Z,1.88
2022-11-09T05:19:35.881Z,1.23
2022-11-09T05:22:22.436Z,1.25
2022-11-09T05:24:51.615Z,1.50
2022-11-09T05:27:18.211Z,1.30
2022-11-09T05:29:44.732Z,1.40
2022-11-09T05:32:11.344Z,1.50
2022-11-09T05:34:37.921Z,1.33
2022-11-09T05:37:04.429Z,1.40
2022-11-09T05:39:31.006Z,1.13
2022-11-09T05:41:57.678Z,1.10
2022-11-09T05:44:24.366Z,1.23
2022-11-09T05:46:50.916Z,1.27
2022-11-09T05:49:17.573Z,1.38
2022-11-09T05:51:44.109Z,1.58
2022-11-09T05:54:10.723Z,1.42
2022-11-09T05:56:37.259Z,1.48
2022-11-09T05:59:03.800Z,1.60
2022-11-09T06:01:30.311Z,1.67
2022-11-09T06:03:56.899Z,1.52
2022-11-09T06:06:23.474Z,1.50
2022-11-09T06:08:50.736Z,1.33
2022-11-09T06:11:23.581Z,1.40
2022-11-09T06:13:51.963Z,1.70
2022-11-09T06:16:18.588Z,1.23
2022-11-09T06:18:45.130Z,1.40
2022-11-09T06:21:11.948Z,1.70
2022-11-09T06:23:38.601Z,1.30
2022-11-09T06:26:07.719Z,1.70
2022-11-09T06:28:34.747Z,1.50
2022-11-09T06:31:02.960Z,1.40
2022-11-09T06:33:34.273Z,1.35
2022-11-09T06:36:01.863Z,1.75
2022-11-09T06:38:28.619Z,1.40
2022-11-09T06:40:57.518Z,1.23
2022-11-09T06:43:24.906Z,1.50
2022-11-09T06:45:52.464Z,1.23
2022-11-09T06:48:19.374Z,1.35
2022-11-09T06:50:46.163Z,1.23
2022-11-09T06:53:14.650Z,1.27
2022-11-09T06:55:47.174Z,1.13
2022-11-09T06:58:16.863Z,1.30
2022-11-09T07:00:44.614Z,1.15
2022-11-09T07:03:15.122Z,1.60
2022-11-09T07:05:42.024Z,1.90
2022-11-09T07:08:08.689Z,1.02
2022-11-09T07:10:35.362Z,1.20
2022-11-09T07:13:03.238Z,1.33
2022-11-09T07:15:30.275Z,1.25
2022-11-09T07:17:58.920Z,1.65
2022-11-09T07:20:26.307Z,1.20
2022-11-09T07:22:52.938Z,1.20
2022-11-09T07:25:19.921Z,1.73
2022-11-09T07:27:46.739Z,1.40
2022-11-09T07:30:13.893Z,1.38
2022-11-09T07:33:07.599Z,1.10
2022-11-09T07:35:27.551Z,1.50
2022-11-09T07:37:54.228Z,1.25
2022-11-09T07:40:20.816Z,1.30
2022-11-09T07:42:47.341Z,1.23
2022-11-09T07:45:14.073Z,1.42
2022-11-09T07:47:40.610Z,1.52
2022-11-09T07:50:07.543Z,1.40
2022-11-09T07:52:34.129Z,1.85
2022-11-09T07:55:00.775Z,3.80
2022-11-09T07:57:27.307Z,1.80
2022-11-09T07:59:54.041Z,2.05
2022-11-09T08:02:20.647Z,3.10
2022-11-09T08:04:47.377Z,2.22
2022-11-09T08:07:14.626Z,1.58
2022-11-09T08:09:41.328Z,2.15
2022-11-09T08:12:07.898Z,1.48
2022-11-09T08:14:34.483Z,1.60
2022-11-09T08:17:01.105Z,1.23
2022-11-09T08:19:27.728Z,1.40
2022-11-09T08:21:57.364Z,1.27
2022-11-09T08:24:24.402Z,1.08
2022-11-09T08:26:50.994Z,1.75
2022-11-09T08:29:17.536Z,1.60
2022-11-09T08:31:44.250Z,1.42
2022-11-09T08:34:13.901Z,1.25
2022-11-09T08:36:40.514Z,1.15
2022-11-09T08:39:07.127Z,1.30
2022-11-09T08:41:33.896Z,1.30
2022-11-09T08:44:00.609Z,1.73
2022-11-09T08:46:27.179Z,1.70
2022-11-09T08:48:53.783Z,1.20
2022-11-09T08:51:20.453Z,1.35
2022-11-09T08:53:47.010Z,1.30
2022-11-09T08:56:18.315Z,1.10
2022-11-09T08:58:46.047Z,1.67
2022-11-09T09:01:16.918Z,1.92
2022-11-09T09:03:44.516Z,1.15
2022-11-09T09:06:11.145Z,1.58
2022-11-09T09:08:37.984Z,1.30
2022-11-09T09:11:05.624Z,1.30
2022-11-09T09:13:32.780Z,1.23
2022-11-09T09:16:13.141Z,1.00
2022-11-09T09:18:39.820Z,1.08
2022-11-09T09:21:09.380Z,1.20
2022-11-09T09:26:02.550Z,1.23
2022-11-09T09:28:29.312Z,1.30
2022-11-09T09:31:01.297Z,1.40
2022-11-09T09:33:28.550Z,1.30
2022-11-09T09:35:57.984Z,1.65
2022-11-09T09:38:26.111Z,1.63
2022-11-09T09:40:52.692Z,1.65
2022-11-09T09:43:30.008Z,1.33
2022-11-09T09:45:59.285Z,1.60
2022-11-09T09:48:53.522Z,1.45
2022-11-09T09:51:38.334Z,1.20
2022-11-09T09:54:19.965Z,1.25
2022-11-09T09:56:49.727Z,1.50
2022-11-09T09:59:26.942Z,1.35
2022-11-09T10:01:53.649Z,1.38
2022-11-09T10:04:23.690Z,1.20
2022-11-09T10:07:02.198Z,1.42
2022-11-09T10:09:58.171Z,1.27
2022-11-09T10:13:09.782Z,1.10
2022-11-09T10:15:54.198Z,1.50
2022-11-09T10:18:29.571Z,1.10
2022-11-09T10:21:19.978Z,1.23
2022-11-09T10:24:11.722Z,1.58
2022-11-09T10:26:47.175Z,1.35
2022-11-09T10:29:35.655Z,1.40
2022-11-09T10:32:23.295Z,1.60
2022-11-09T10:34:56.508Z,1.65
2022-11-09T10:37:27.551Z,1.25
2022-11-09T10:40:24.256Z,0.93
2022-11-09T10:43:23.734Z,1.20
2022-11-09T10:46:09.196Z,1.40
2022-11-09T10:48:55.623Z,1.08
2022-11-09T10:51:42.768Z,1.45
2022-11-09T10:54:32.417Z,1.33
2022-11-09T11:00:05.446Z,1.10
2022-11-09T11:02:52.066Z,1.73
2022-11-09T11:05:38.920Z,1.20
2022-11-09T11:08:29.776Z,1.42
2022-11-09T11:11:33.669Z,1.15
2022-11-09T11:14:33.268Z,1.30
2022-11-09T11:17:26.376Z,0.90
2022-11-09T11:20:30.701Z,1.00
2022-11-09T11:23:22.442Z,1.27
2022-11-09T11:26:23.160Z,1.50
2022-11-09T11:29:48.722Z,1.15
2022-11-09T11:32:34.096Z,1.10
2022-11-09T11:35:38.647Z,1.15
2022-11-09T11:38:37.969Z,1.02
2022-11-09T11:42:01.534Z,1.30
2022-11-09T11:45:12.761Z,1.00
2022-11-09T11:48:15.663Z,1.40
2022-11-09T11:51:32.102Z,1.27
2022-11-09T11:54:37.291Z,1.40
2022-11-09T11:57:41.420Z,1.13
2022-11-09T12:00:26.845Z,1.30
2022-11-09T12:03:31.461Z,1.20
2022-11-09T12:06:22.084Z,0.70
2022-11-09T12:09:16.360Z,0.93
2022-11-09T12:12:34.562Z,1.33
2022-11-09T12:16:03.165Z,1.27
2022-11-09T12:19:00.208Z,1.33
2022-11-09T12:21:55.507Z,1.17
2022-11-09T12:24:54.228Z,1.20
2022-11-09T12:27:57.495Z,1.10
2022-11-09T12:31:14.199Z,1.23
2022-11-09T12:34:18.143Z,1.52
2022-11-09T12:37:09.854Z,1.23
2022-11-09T12:40:00.238Z,1.17
2022-11-09T12:42:56.648Z,1.10
2022-11-09T12:45:43.661Z,0.95
2022-11-09T12:48:31.693Z,1.20
2022-11-09T12:51:18.706Z,1.17
2022-11-09T12:54:11.218Z,1.33
2022-11-09T12:57:03.806Z,0.90
2022-11-09T12:59:54.614Z,0.90
2022-11-09T13:02:54.827Z,1.20
2022-11-09T13:05:40.333Z,1.10
2022-11-09T13:08:31.576Z,1.30
2022-11-09T13:11:39.865Z,0.90
2022-11-09T13:14:31.602Z,1.10
2022-11-09T13:17:25.861Z,0.82
2022-11-09T13:26:46.786Z,1.10
2022-11-09T13:29:40.946Z,1.08
2022-11-09T13:32:33.223Z,0.75
2022-11-09T13:35:40.206Z,1.00
2022-11-09T13:38:28.547Z,1.23
2022-11-09T13:41:32.221Z,1.25
2022-11-09T13:44:20.530Z,1.00
2022-11-09T13:47:05.660Z,1.38
2022-11-09T13:49:52.027Z,1.25
2022-11-09T13:52:43.899Z,1.30
2022-11-09T13:55:40.400Z,1.30
2022-11-09T13:58:29.846Z,1.50
2022-11-09T14:04:24.587Z,1.10
2022-11-09T14:07:24.014Z,1.20
2022-11-09T14:10:42.300Z,1.50
2022-11-09T14:14:01.932Z,1.13
2022-11-09T14:17:16.781Z,1.30
2022-11-09T14:20:12.200Z,1.20
2022-11-09T14:22:57.517Z,1.30
2022-11-09T14:25:43.070Z,2.40
2022-11-09T14:28:32.711Z,1.52
2022-11-09T14:31:27.477Z,1.30
2022-11-09T14:34:16.569Z,1.35
2022-11-09T14:37:05.821Z,1.27
2022-11-09T14:42:40.834Z,1.05
2022-11-09T14:45:30.283Z,1.50
2022-11-09T14:48:20.793Z,1.60
2022-11-09T14:51:12.102Z,1.02
2022-11-09T14:53:58.679Z,1.90
2022-11-09T14:56:44.839Z,1.40
2022-11-09T14:59:36.049Z,1.35
2022-11-09T15:02:23.122Z,1.52
2022-11-09T15:05:29.906Z,1.70
2022-11-09T15:08:22.737Z,1.40
2022-11-09T15:11:08.557Z,1.52
2022-11-09T15:13:54.037Z,1.25
2022-11-09T15:16:40.533Z,1.55
2022-11-09T15:19:30.588Z,1.73
2022-11-09T15:22:46.723Z,1.38
2022-11-09T15:25:41.161Z,2.15
2022-11-09T15:28:29.545Z,1.55
2022-11-09T15:31:18.715Z,1.52
2022-11-09T15:34:22.017Z,1.65
2022-11-09T15:37:29.515Z,2.00
2022-11-09T15:40:17.692Z,1.40
2022-11-09T15:43:02.665Z,1.75
2022-11-09T15:45:47.828Z,2.00
2022-11-09T15:48:33.712Z,1.45
2022-11-09T15:51:19.622Z,1.70
2022-11-09T15:54:05.096Z,1.92
2022-11-09T15:56:51.304Z,1.70
2022-11-09T15:59:36.618Z,1.50
2022-11-09T16:02:22.009Z,1.67
2022-11-09T16:05:07.879Z,1.30
2022-11-09T16:07:54.915Z,1.48
2022-11-09T16:10:41.277Z,1.50
2022-11-09T16:13:26.314Z,1.40
2022-11-09T16:16:14.136Z,1.33
2022-11-09T16:18:59.421Z,2.08
2022-11-09T16:21:44.638Z,1.27
2022-11-09T16:24:30.077Z,1.40
2022-11-09T16:27:35.378Z,2.75
2022-11-09T16:30:20.555Z,2.70
2022-11-09T16:33:05.577Z,1.48
2022-11-09T16:35:50.856Z,1.42
2022-11-09T16:38:41.958Z,1.75
2022-11-09T16:41:27.456Z,1.42
2022-11-09T16:44:14.332Z,1.42
2022-11-09T16:47:03.076Z,1.75
2022-11-09T16:49:48.366Z,1.60
2022-11-09T16:52:33.578Z,1.40
2022-11-09T16:55:18.766Z,1.75
2022-11-09T16:58:04.133Z,1.67
2022-11-09T17:03:57.537Z,1.20
2022-11-09T17:06:42.623Z,1.40
2022-11-09T17:09:27.887Z,1.17
2022-11-09T17:12:14.253Z,1.40
2022-11-09T17:14:59.355Z,1.10
2022-11-09T17:17:44.670Z,1.58
2022-11-09T17:20:29.915Z,1.10
2022-11-09T17:23:18.430Z,1.10
2022-11-09T17:26:06.522Z,1.13
2022-11-09T17:28:51.832Z,1.58
2022-11-09T17:31:38.083Z,1.17
2022-11-09T17:34:23.489Z,1.52
2022-11-09T17:37:09.024Z,1.92
2022-11-09T17:39:54.256Z,1.48
2022-11-09T17:42:39.980Z,1.70
2022-11-09T17:45:25.919Z,1.40
2022-11-09T17:48:11.139Z,1.88
2022-11-09T17:50:57.616Z,1.73
2022-11-09T17:53:43.513Z,1.73
2022-11-09T17:56:29.003Z,1.40
2022-11-09T17:59:14.553Z,1.30
2022-11-09T18:01:59.741Z,1.85
2022-11-09T18:04:44.909Z,1.83
2022-11-09T18:07:31.053Z,1.30
2022-11-09T18:10:16.208Z,1.58
2022-11-09T18:13:01.780Z,1.27
2022-11-09T18:15:46.828Z,1.55
2022-11-09T18:18:32.305Z,1.30
2022-11-09T18:21:19.568Z,1.52
2022-11-09T18:24:05.356Z,1.30
2022-11-09T18:26:50.474Z,1.20
2022-11-09T18:29:36.055Z,1.30
2022-11-09T18:32:21.262Z,1.98
2022-11-09T18:35:07.608Z,1.48
2022-11-09T18:37:52.914Z,1.65
2022-11-09T18:40:38.236Z,1.60
2022-11-09T18:43:23.676Z,1.75
2022-11-09T18:46:11.841Z,1.98
2022-11-09T18:48:56.930Z,1.98
2022-11-09T18:51:43.968Z,2.00
2022-11-09T18:54:29.626Z,2.15
2022-11-09T18:57:19.668Z,2.35
2022-11-09T19:00:06.312Z,2.75
2022-11-09T19:02:51.592Z,2.50
2022-11-09T19:05:39.946Z,2.25
2022-11-09T19:08:44.047Z,1.95
2022-11-09T19:11:30.157Z,1.88
2022-11-09T19:14:15.591Z,2.50
2022-11-09T19:17:01.021Z,2.30
2022-11-09T19:19:46.257Z,2.60
2022-11-09T19:22:31.928Z,1.92
2022-11-09T19:25:17.039Z,1.60
2022-11-09T19:28:02.306Z,1.95
2022-11-09T19:30:47.693Z,2.17
2022-11-09T19:33:32.823Z,1.95
2022-11-09T19:36:34.608Z,1.77
2022-11-09T19:39:20.175Z,1.90
2022-11-09T19:42:05.970Z,1.83
2022-11-09T19:44:56.263Z,1.80
2022-11-09T19:47:42.306Z,1.83
2022-11-09T19:50:27.430Z,2.08
2022-11-09T19:53:12.779Z,1.95
2022-11-09T19:56:04.376Z,2.65
2022-11-09T19:58:55.406Z,2.42
2022-11-09T20:01:40.663Z,1.85
2022-11-09T20:04:25.885Z,1.90
2022-11-09T20:07:11.357Z,2.20
2022-11-09T20:09:56.589Z,1.88
2022-11-09T20:12:50.682Z,2.17
2022-11-09T20:15:36.428Z,2.80
2022-11-09T20:18:23.753Z,2.08
2022-11-09T20:21:09.051Z,1.90
2022-11-09T20:23:54.577Z,2.22
2022-11-09T20:26:40.760Z,2.22
2022-11-09T20:29:26.229Z,2.50
2022-11-09T20:32:12.423Z,2.05
2022-11-09T20:34:58.196Z,2.78
2022-11-09T20:37:43.349Z,1.85
2022-11-09T20:40:29.012Z,2.00
2022-11-09T20:43:14.174Z,1.92
2022-11-09T20:46:07.161Z,2.20
2022-11-09T20:48:54.581Z,2.03
2022-11-09T20:51:40.766Z,2.10
2022-11-09T20:54:26.495Z,1.88
2022-11-09T20:57:12.034Z,2.22
2022-11-09T20:59:56.915Z,2.13
2022-11-09T21:02:43.129Z,2.22
2022-11-09T21:05:28.156Z,1.40
2022-11-09T21:08:13.541Z,2.45
2022-11-09T21:11:03.889Z,1.83
2022-11-09T21:13:55.988Z,2.30
2022-11-09T21:16:40.950Z,1.75
2022-11-09T21:19:26.699Z,2.10
2022-11-09T21:22:11.849Z,2.03
2022-11-09T21:25:15.701Z,2.10
2022-11-09T21:28:19.872Z,2.03
2022-11-09T21:31:05.480Z,2.00
2022-11-09T21:33:53.106Z,1.92
2022-11-09T21:36:38.115Z,2.13
2022-11-09T21:39:23.816Z,2.60
2022-11-09T21:42:13.671Z,1.90
2022-11-09T21:44:59.690Z,2.28
2022-11-09T21:47:44.679Z,2.38
2022-11-09T21:50:30.414Z,2.20
2022-11-09T21:53:26.980Z,1.88
2022-11-09T21:56:17.337Z,1.80
2022-11-09T21:59:11.114Z,2.22
2022-11-09T22:02:02.612Z,2.20
2022-11-09T22:04:58.226Z,1.88
2022-11-09T22:07:44.329Z,1.63
2022-11-09T22:10:29.503Z,2.30
2022-11-09T22:13:33.893Z,2.78
2022-11-09T22:16:20.714Z,3.00
2022-11-09T22:19:24.497Z,3.17
2022-11-09T22:22:09.851Z,2.88
2022-11-09T22:24:55.045Z,2.47
2022-11-09T22:27:40.340Z,2.85
2022-11-09T22:30:26.302Z,2.42
2022-11-09T22:33:11.359Z,3.10
2022-11-09T22:35:58.262Z,2.95
2022-11-09T22:38:43.894Z,3.58
2022-11-09T22:41:28.951Z,2.70
2022-11-09T22:44:14.541Z,3.05
2022-11-09T22:46:59.871Z,3.40
2022-11-09T22:49:45.207Z,2.58
2022-11-09T22:52:30.491Z,2.92
2022-11-09T22:55:15.748Z,3.30
2022-11-09T22:58:01.269Z,2.83
2022-11-09T23:00:46.565Z,2.42
2022-11-09T23:03:31.856Z,2.50
2022-11-09T23:06:20.033Z,2.90
2022-11-09T23:09:05.117Z,3.22
2022-11-09T23:11:50.524Z,2.92
2022-11-09T23:14:54.276Z,3.13
2022-11-09T23:17:57.979Z,2.65
2022-11-09T23:20:43.554Z,3.15
2022-11-09T23:23:28.529Z,2.40
2022-11-09T23:26:13.823Z,2.42
2022-11-09T23:28:59.648Z,2.55
2022-11-09T23:31:44.907Z,2.80
2022-11-09T23:34:30.182Z,2.33
2022-11-09T23:37:15.466Z,2.42
2022-11-09T23:40:00.968Z,3.25
2022-11-09T23:42:45.998Z,2.55
2022-11-09T23:45:33.815Z,2.75
2022-11-09T23:48:19.419Z,2.78
2022-11-09T23:51:05.873Z,2.80
2022-11-09T23:53:50.908Z,2.85
2022-11-09T23:56:36.322Z,2.75
2022-11-09T23:59:22.905Z,2.67
